Time;durP1;ratioP1;P1;durP2;ratioP2;P2;SDS_P1;SDS_P2;PMS_P1;PMS_P2;Temp;Humidity;BMP_temperature;BMP_pressure;BME280_temperature;BME280_humidity;BME280_pressure;Samples;Min_cycle;Max_cycle;Signal;HPM_P1;HPM_P2
2022/10/31 00:01:45;;;;;;;11.02;8.27;;;;;;;12.32;100.00;101647.97;6028746;23;20106;-72
2022/10/31 00:04:12;;;;;;;8.07;7.38;;;;;;;12.31;100.00;101644.47;6036580;23;20019;-71
2022/10/31 00:06:38;;;;;;;7.65;6.90;;;;;;;12.27;100.00;101656.06;6032958;23;20035;-72
2022/10/31 00:09:05;;;;;;;12.73;7.93;;;;;;;12.08;100.00;101636.72;6032862;23;20007;-71
2022/10/31 00:11:32;;;;;;;13.63;7.78;;;;;;;12.22;100.00;101660.66;6040293;23;20033;-71
2022/10/31 00:13:58;;;;;;;11.48;7.22;;;;;;;11.93;100.00;101619.84;6003985;23;20081;-71
2022/10/31 00:16:26;;;;;;;10.00;7.57;;;;;;;11.77;100.00;101598.56;6034087;23;20166;-72
2022/10/31 00:18:58;;;;;;;9.95;7.63;;;;;;;12.09;100.00;101652.47;6040139;23;20163;-71
2022/10/31 00:21:26;;;;;;;14.73;7.55;;;;;;;12.12;100.00;101659.34;6035471;23;20357;-71
2022/10/31 00:23:52;;;;;;;7.78;7.10;;;;;;;12.10;100.00;101653.31;6024081;23;20006;-71
2022/10/31 00:26:19;;;;;;;7.82;7.05;;;;;;;11.61;100.00;101573.84;6028942;23;20014;-71
2022/10/31 00:28:46;;;;;;;10.13;6.30;;;;;;;12.03;100.00;101646.59;6031191;23;20088;-71
2022/10/31 00:31:12;;;;;;;6.63;6.10;;;;;;;12.02;100.00;101642.25;6027958;23;20026;-71
2022/10/31 00:33:40;;;;;;;7.03;5.95;;;;;;;11.20;100.00;101511.56;6035177;23;20243;-71
2022/10/31 00:36:10;;;;;;;6.93;6.32;;;;;;;11.73;100.00;101610.16;6029201;23;20363;-72
2022/10/31 00:38:36;;;;;;;7.00;6.47;;;;;;;11.81;100.00;101617.69;5996196;23;20035;-72
2022/10/31 00:41:03;;;;;;;7.80;6.00;;;;;;;11.20;100.00;101537.84;6039291;23;20094;-71
2022/10/31 00:43:29;;;;;;;8.25;6.45;;;;;;;11.60;100.00;101651.00;6037415;23;20445;-70
2022/10/31 00:45:56;;;;;;;6.65;6.18;;;;;;;10.70;100.00;101520.59;6028489;23;20329;-70
2022/10/31 00:48:22;;;;;;;6.47;5.90;;;;;;;11.42;100.00;101655.25;6032291;23;20114;-70
2022/10/31 00:50:49;;;;;;;7.18;6.13;;;;;;;11.73;100.00;101702.19;6029577;23;20023;-70
2022/10/31 00:53:15;;;;;;;6.50;6.00;;;;;;;11.69;100.00;101666.41;6051773;23;20030;-71
2022/10/31 00:55:41;;;;;;;6.55;6.05;;;;;;;11.65;100.00;101639.38;6064570;23;20534;-72
2022/10/31 00:58:08;;;;;;;6.65;6.03;;;;;;;11.92;100.00;101660.22;6068424;23;20018;-72
2022/10/31 01:00:34;;;;;;;16.63;6.32;;;;;;;12.06;100.00;101681.53;6058335;23;20039;-71
2022/10/31 01:03:01;;;;;;;6.60;5.97;;;;;;;12.09;100.00;101675.28;6058669;23;20080;-72
2022/10/31 01:05:28;;;;;;;7.53;6.50;;;;;;;12.02;100.00;101668.56;6062090;23;20019;-72
2022/10/31 01:07:55;;;;;;;9.75;6.93;;;;;;;12.21;100.00;101687.91;6067312;23;20018;-72
2022/10/31 01:10:21;;;;;;;13.27;7.18;;;;;;;11.93;100.00;101630.38;6059471;23;20026;-72
2022/10/31 01:12:48;;;;;;;12.35;5.90;;;;;;;12.17;100.00;101667.91;6065104;23;20652;-72
2022/10/31 01:15:18;;;;;;;7.72;5.97;;;;;;;12.13;100.00;101671.59;6069869;23;20327;-72
2022/10/31 01:17:45;;;;;;;6.95;5.75;;;;;;;12.23;100.00;101675.56;6056570;23;20076;-73
2022/10/31 01:20:14;;;;;;;12.48;7.25;;;;;;;11.02;100.00;101473.78;6034404;23;20031;-73
2022/10/31 01:22:41;;;;;;;8.25;5.95;;;;;;;12.10;100.00;101658.56;6049218;23;20041;-72
2022/10/31 01:25:11;;;;;;;13.98;7.18;;;;;;;12.05;100.00;101636.88;6035101;23;20422;-71
2022/10/31 01:27:38;;;;;;;8.27;6.40;;;;;;;11.84;100.00;101597.38;6054112;23;20034;-70
2022/10/31 01:30:05;;;;;;;8.40;7.65;;;;;;;12.03;100.00;101644.84;6048727;23;20073;-70
2022/10/31 01:32:32;;;;;;;6.93;5.93;;;;;;;11.83;100.00;101616.72;6044913;23;20034;-71
2022/10/31 01:34:58;;;;;;;6.95;6.35;;;;;;;12.04;100.00;101656.19;6044237;23;20417;-71
2022/10/31 01:37:25;;;;;;;11.75;6.63;;;;;;;12.00;100.00;101644.09;6063326;23;20025;-71
2022/10/31 01:39:51;;;;;;;8.65;6.43;;;;;;;11.95;100.00;101642.53;6069527;23;20014;-71
2022/10/31 01:42:20;;;;;;;6.47;5.95;;;;;;;11.94;100.00;101634.69;6066211;23;20495;-72
2022/10/31 01:44:52;;;;;;;7.05;6.45;;;;;;;11.90;100.00;101635.75;6058860;23;20018;-72
2022/10/31 01:47:28;;;;;;;7.25;6.22;;;;;;;11.50;100.00;101577.75;6063530;23;20018;-70
2022/10/31 01:50:00;;;;;;;6.57;6.15;;;;;;;11.42;100.00;101573.75;6068404;23;20077;-72
2022/10/31 01:52:39;;;;;;;7.15;6.45;;;;;;;11.69;100.00;101624.34;6038343;23;20337;-70
2022/10/31 01:55:27;;;;;;;8.70;6.38;;;;;;;11.75;100.00;101639.84;6066244;23;20223;-71
2022/10/31 01:58:01;;;;;;;7.40;6.78;;;;;;;11.61;100.00;101631.69;6059703;23;20081;-70
2022/10/31 02:00:30;;;;;;;9.40;6.60;;;;;;;11.18;100.00;101572.09;6058382;23;20022;-70
2022/10/31 02:02:56;;;;;;;8.32;5.57;;;;;;;11.13;100.00;101560.91;6040316;23;20473;-70
2022/10/31 02:05:27;;;;;;;8.15;5.90;;;;;;;11.51;100.00;101639.09;6060163;23;20027;-70
2022/10/31 02:08:02;;;;;;;6.47;5.88;;;;;;;11.46;100.00;101639.28;6067524;23;20068;-71
2022/10/31 02:10:31;;;;;;;6.35;5.82;;;;;;;11.47;100.00;101637.53;6044154;23;20027;-71
2022/10/31 02:12:59;;;;;;;6.95;6.35;;;;;;;11.44;100.00;101630.59;6067971;23;20043;-71
2022/10/31 02:15:28;;;;;;;6.47;5.90;;;;;;;11.15;100.00;101589.75;6056564;23;20294;-70
2022/10/31 02:17:54;;;;;;;6.28;5.68;;;;;;;11.40;100.00;101630.78;6058371;23;20288;-71
2022/10/31 02:20:24;;;;;;;8.25;5.63;;;;;;;11.13;100.00;101595.06;6055447;23;20028;-71
2022/10/31 02:23:28;;;;;;;7.53;6.63;;;;;;;11.34;100.00;101631.88;6059205;23;20019;-71
2022/10/31 02:26:25;;;;;;;7.05;6.03;;;;;;;11.28;100.00;101635.63;6038931;23;20017;-71
2022/10/31 02:29:10;;;;;;;6.10;5.72;;;;;;;11.25;100.00;101629.66;6042028;23;20015;-70
2022/10/31 02:31:51;;;;;;;6.40;6.00;;;;;;;11.22;100.00;101629.75;6048746;23;20026;-71
2022/10/31 02:34:25;;;;;;;6.20;5.63;;;;;;;11.18;100.00;101642.16;6036791;23;20480;-71
2022/10/31 02:37:01;;;;;;;12.07;6.53;;;;;;;11.14;100.00;101662.44;6046821;23;20014;-71
2022/10/31 02:39:40;;;;;;;5.82;5.32;;;;;;;11.10;100.00;101654.75;6059320;23;20026;-71
2022/10/31 02:42:25;;;;;;;6.72;6.25;;;;;;;11.09;100.00;101648.63;6052883;23;20018;-70
2022/10/31 02:45:15;;;;;;;6.05;5.60;;;;;;;11.09;100.00;101655.66;6040852;23;20433;-71
2022/10/31 02:47:42;;;;;;;7.95;6.45;;;;;;;10.80;100.00;101593.75;6067637;23;20018;-71
2022/10/31 02:50:15;;;;;;;6.43;5.93;;;;;;;11.03;100.00;101656.75;6031088;23;20011;-70
2022/10/31 02:52:42;;;;;;;6.30;5.80;;;;;;;11.08;100.00;101664.44;6061828;23;20037;-71
2022/10/31 02:55:22;;;;;;;9.43;6.25;;;;;;;11.08;100.00;101670.56;6057362;23;20030;-71
2022/10/31 02:57:52;;;;;;;6.50;5.90;;;;;;;10.92;100.00;101644.03;6064731;23;20014;-71
2022/10/31 03:00:18;;;;;;;10.60;6.20;;;;;;;10.91;100.00;101631.81;6062122;23;20062;-71
2022/10/31 03:03:11;;;;;;;6.90;6.30;;;;;;;10.96;100.00;101621.13;6048704;23;20093;-71
2022/10/31 03:06:09;;;;;;;6.38;5.78;;;;;;;11.15;100.00;101658.91;6048882;23;20083;-71
2022/10/31 03:08:44;;;;;;;5.80;5.40;;;;;;;11.16;100.00;101647.50;6045180;23;20266;-71
2022/10/31 03:11:10;;;;;;;6.38;5.97;;;;;;;11.07;100.00;101615.47;6059894;23;20549;-71
2022/10/31 03:14:12;;;;;;;7.28;6.07;;;;;;;11.48;100.00;101671.59;6059348;23;20180;-70
2022/10/31 03:16:49;;;;;;;6.22;5.68;;;;;;;11.55;100.00;101667.81;6057019;23;20497;-71
2022/10/31 03:19:22;;;;;;;6.72;6.22;;;;;;;11.49;100.00;101647.03;6056782;23;20022;-71
2022/10/31 03:21:55;;;;;;;6.22;5.82;;;;;;;11.45;100.00;101627.06;6063134;23;20032;-71
2022/10/31 03:24:27;;;;;;;7.30;6.20;;;;;;;11.58;100.00;101646.66;6043249;23;20177;-72
2022/10/31 03:26:57;;;;;;;6.28;5.82;;;;;;;11.46;100.00;101634.00;6060283;23;20014;-71
2022/10/31 03:29:31;;;;;;;6.97;6.43;;;;;;;11.46;100.00;101649.78;6059669;23;20088;-71
2022/10/31 03:32:04;;;;;;;6.00;5.50;;;;;;;11.51;100.00;101658.34;6063387;23;20014;-71
2022/10/31 03:34:31;;;;;;;14.73;6.65;;;;;;;11.51;100.00;101655.72;6046099;23;20030;-70
2022/10/31 03:37:03;;;;;;;8.63;6.18;;;;;;;11.51;100.00;101654.88;6053424;23;20077;-71
2022/10/31 03:39:31;;;;;;;7.00;6.40;;;;;;;11.47;100.00;101651.50;6037999;23;20078;-71
2022/10/31 03:42:24;;;;;;;6.78;6.22;;;;;;;11.33;100.00;101632.81;6053789;23;20015;-71
2022/10/31 03:45:06;;;;;;;7.10;6.50;;;;;;;11.42;100.00;101658.72;6052125;23;20049;-71
2022/10/31 03:47:36;;;;;;;6.55;6.05;;;;;;;11.35;100.00;101641.50;6031835;23;20441;-71
2022/10/31 03:50:05;;;;;;;6.78;6.05;;;;;;;11.06;100.00;101590.94;6033314;23;20023;-71
2022/10/31 03:52:46;;;;;;;7.07;6.38;;;;;;;10.62;100.00;101516.56;6047811;23;20026;-71
2022/10/31 03:55:26;;;;;;;6.30;5.78;;;;;;;11.29;100.00;101631.22;6046111;23;20186;-71
2022/10/31 03:58:03;;;;;;;6.38;5.78;;;;;;;11.41;100.00;101645.66;6042557;23;20017;-71
2022/10/31 04:00:32;;;;;;;11.00;6.70;;;;;;;11.31;100.00;101639.91;6051485;23;20097;-71
2022/10/31 04:03:05;;;;;;;7.60;5.70;;;;;;;11.29;100.00;101652.25;6043777;23;20034;-71
2022/10/31 04:05:34;;;;;;;6.57;5.80;;;;;;;10.95;100.00;101601.03;6054028;23;20203;-71
2022/10/31 04:08:04;;;;;;;7.65;5.85;;;;;;;10.98;100.00;101609.66;6046115;23;20409;-71
2022/10/31 04:10:32;;;;;;;13.02;5.50;;;;;;;10.80;100.00;101596.38;6054810;23;20380;-71
2022/10/31 04:13:08;;;;;;;7.22;6.72;;;;;;;11.18;100.00;101666.69;6015612;23;20402;-70
2022/10/31 04:15:37;;;;;;;13.63;6.53;;;;;;;11.02;100.00;101649.78;6060641;23;20035;-72
2022/10/31 04:18:05;;;;;;;6.55;6.05;;;;;;;10.86;100.00;101618.00;6046534;23;20022;-71
2022/10/31 04:20:33;;;;;;;7.43;6.45;;;;;;;11.14;100.00;101645.81;6026155;23;20040;-71
2022/10/31 04:23:01;;;;;;;6.68;6.15;;;;;;;10.75;100.00;101597.41;6057562;23;20072;-72
2022/10/31 04:25:27;;;;;;;6.93;6.30;;;;;;;10.95;100.00;101614.19;6039485;23;20046;-70
2022/10/31 04:27:55;;;;;;;6.25;5.85;;;;;;;11.14;100.00;101659.81;6053618;23;20018;-71
2022/10/31 04:30:21;;;;;;;6.82;6.32;;;;;;;10.13;100.00;101495.66;6049497;23;20173;-71
2022/10/31 04:32:48;;;;;;;7.30;6.65;;;;;;;11.08;100.00;101654.78;6042326;23;20038;-71
2022/10/31 04:35:15;;;;;;;6.07;5.55;;;;;;;11.02;100.00;101649.78;6057316;23;20086;-71
2022/10/31 04:37:42;;;;;;;7.32;6.60;;;;;;;10.85;100.00;101647.81;6060905;23;20141;-71
2022/10/31 04:40:09;;;;;;;6.75;5.82;;;;;;;10.92;100.00;101657.16;6027879;23;20054;-71
2022/10/31 04:42:35;;;;;;;6.28;5.88;;;;;;;10.41;100.00;101578.63;6037420;23;20278;-72
2022/10/31 04:45:02;;;;;;;6.78;6.22;;;;;;;10.67;100.00;101633.59;6019189;23;20030;-72
2022/10/31 04:47:32;;;;;;;6.30;5.70;;;;;;;10.87;100.00;101666.16;6047561;23;20022;-72
2022/10/31 04:49:58;;;;;;;6.90;6.32;;;;;;;10.47;100.00;101607.25;6022983;23;20045;-71
2022/10/31 04:52:25;;;;;;;7.05;6.35;;;;;;;10.82;100.00;101654.94;6043669;23;20088;-72
2022/10/31 04:54:51;;;;;;;6.65;6.15;;;;;;;10.80;100.00;101651.53;6041833;23;20068;-71
2022/10/31 04:57:18;;;;;;;8.20;5.90;;;;;;;10.76;100.00;101651.66;6040457;23;20251;-71
2022/10/31 04:59:44;;;;;;;6.40;5.78;;;;;;;10.19;100.00;101555.75;6057923;23;20305;-72
2022/10/31 05:02:11;;;;;;;7.00;6.35;;;;;;;10.71;100.00;101640.47;6044337;23;20493;-72
2022/10/31 05:04:37;;;;;;;6.82;6.22;;;;;;;10.71;100.00;101640.47;6063638;23;20030;-71
2022/10/31 05:07:04;;;;;;;6.03;5.68;;;;;;;10.61;100.00;101620.72;6050040;23;20378;-70
2022/10/31 05:09:30;;;;;;;6.13;5.57;;;;;;;10.65;100.00;101627.56;6038290;23;20313;-70
2022/10/31 05:11:57;;;;;;;7.10;6.50;;;;;;;10.75;100.00;101641.19;6036230;23;20015;-71
2022/10/31 05:14:23;;;;;;;7.28;6.68;;;;;;;10.77;100.00;101647.25;6039412;23;20232;-71
2022/10/31 05:16:49;;;;;;;7.40;5.75;;;;;;;10.43;100.00;101584.66;6042818;23;20440;-71
2022/10/31 05:19:16;;;;;;;6.15;5.78;;;;;;;10.75;100.00;101660.44;6054931;23;20581;-71
2022/10/31 05:21:42;;;;;;;6.57;6.05;;;;;;;10.72;100.00;101646.56;6046149;23;20026;-70
2022/10/31 05:24:09;;;;;;;7.13;5.93;;;;;;;9.56;100.00;101448.78;6017749;23;20442;-70
2022/10/31 05:26:35;;;;;;;6.30;5.85;;;;;;;10.66;100.00;101631.88;6050694;23;20570;-70
2022/10/31 05:29:02;;;;;;;6.32;5.53;;;;;;;10.74;100.00;101642.09;6050268;23;20098;-70
2022/10/31 05:31:28;;;;;;;6.22;5.88;;;;;;;10.27;100.00;101568.59;6056860;23;20042;-71
2022/10/31 05:33:55;;;;;;;6.95;6.25;;;;;;;10.57;100.00;101614.72;6050420;23;20461;-71
2022/10/31 05:36:21;;;;;;;11.90;5.53;;;;;;;10.72;100.00;101636.06;6045379;23;20504;-70
2022/10/31 05:38:47;;;;;;;7.70;7.07;;;;;;;10.26;100.00;101559.00;6041482;23;20026;-71
2022/10/31 05:41:14;;;;;;;6.43;5.95;;;;;;;10.74;100.00;101635.09;6061453;23;20096;-71
2022/10/31 05:43:40;;;;;;;7.00;6.30;;;;;;;10.70;100.00;101624.75;6054100;23;20497;-71
2022/10/31 05:46:06;;;;;;;7.72;7.07;;;;;;;10.74;100.00;101631.59;6022943;23;20520;-71
2022/10/31 05:48:33;;;;;;;7.13;6.07;;;;;;;10.72;100.00;101636.94;6064352;23;20002;-71
2022/10/31 05:50:59;;;;;;;5.85;5.45;;;;;;;10.16;100.00;101545.38;6060564;23;20022;-72
2022/10/31 05:53:25;;;;;;;11.05;6.75;;;;;;;10.19;100.00;101553.13;6058359;23;20090;-73
2022/10/31 05:55:52;;;;;;;6.85;6.15;;;;;;;10.44;100.00;101604.72;6048393;23;20087;-71
2022/10/31 05:58:18;;;;;;;8.02;6.15;;;;;;;10.34;100.00;101583.22;6058616;23;20215;-71
2022/10/31 06:00:45;;;;;;;6.32;5.70;;;;;;;10.64;100.00;101643.38;6053282;23;20276;-72
2022/10/31 06:03:11;;;;;;;6.13;5.57;;;;;;;10.58;100.00;101626.06;6022110;23;20026;-72
2022/10/31 06:05:38;;;;;;;6.38;5.90;;;;;;;10.60;100.00;101634.75;6041441;23;20030;-72
2022/10/31 06:08:05;;;;;;;7.18;6.53;;;;;;;10.57;100.00;101640.97;6044740;23;20019;-72
2022/10/31 06:10:31;;;;;;;7.53;6.97;;;;;;;10.51;100.00;101633.31;6056470;23;20508;-70
2022/10/31 06:12:57;;;;;;;6.72;6.22;;;;;;;9.89;100.00;101540.22;6030161;23;20018;-72
2022/10/31 06:15:24;;;;;;;7.80;6.15;;;;;;;10.46;100.00;101634.41;6047108;23;20063;-72
2022/10/31 06:18:05;;;;;;;7.65;6.85;;;;;;;10.45;100.00;101632.69;6037457;23;20086;-72
2022/10/31 06:20:33;;;;;;;8.23;7.43;;;;;;;10.46;100.00;101640.50;6085261;23;20034;-72
2022/10/31 06:22:59;;;;;;;6.85;6.30;;;;;;;10.16;100.00;101592.59;6055145;23;20026;-72
2022/10/31 06:25:27;;;;;;;6.43;5.72;;;;;;;10.41;100.00;101633.72;6055196;23;20022;-72
2022/10/31 06:27:54;;;;;;;10.05;6.45;;;;;;;10.11;100.00;101600.63;6061796;23;20468;-72
2022/10/31 06:30:21;;;;;;;7.38;5.65;;;;;;;10.28;100.00;101636.72;6061551;23;20029;-71
2022/10/31 06:32:47;;;;;;;9.40;7.03;;;;;;;9.78;100.00;101569.47;6060918;23;20047;-72
2022/10/31 06:35:14;;;;;;;8.10;6.10;;;;;;;10.18;100.00;101636.22;6061428;23;20022;-72
2022/10/31 06:37:40;;;;;;;6.97;6.30;;;;;;;10.09;100.00;101619.97;6078784;23;20210;-72
2022/10/31 06:40:12;;;;;;;6.93;6.25;;;;;;;10.17;100.00;101634.50;6059300;23;20028;-72
2022/10/31 06:42:38;;;;;;;6.85;6.35;;;;;;;9.84;100.00;101576.22;6058613;23;20077;-69
2022/10/31 06:45:05;;;;;;;6.85;6.28;;;;;;;10.26;100.00;101638.56;6047769;23;20041;-70
2022/10/31 06:47:31;;;;;;;7.18;6.32;;;;;;;10.05;100.00;101592.13;6046839;23;20026;-70
2022/10/31 06:50:07;;;;;;;17.80;6.50;;;;;;;10.35;100.00;101633.03;6038191;23;20015;-70
2022/10/31 06:52:33;;;;;;;7.38;6.75;;;;;;;10.02;100.00;101568.63;6064847;23;20073;-70
2022/10/31 06:54:59;;;;;;;7.22;6.63;;;;;;;10.50;100.00;101630.75;6054382;23;20094;-72
2022/10/31 06:57:26;;;;;;;6.45;5.88;;;;;;;10.58;100.00;101641.81;6043448;23;20023;-72
2022/10/31 06:59:52;;;;;;;9.13;7.13;;;;;;;10.23;100.00;101580.13;6070024;23;20189;-72
2022/10/31 07:02:18;;;;;;;6.85;6.28;;;;;;;10.67;100.00;101645.88;6058239;23;20018;-72
2022/10/31 07:04:45;;;;;;;7.18;6.47;;;;;;;10.71;100.00;101660.63;6037447;23;20018;-70
2022/10/31 07:07:11;;;;;;;7.28;6.53;;;;;;;10.43;100.00;101603.88;6058930;23;20147;-70
2022/10/31 07:09:38;;;;;;;7.75;6.22;;;;;;;10.76;100.00;101649.03;6048721;23;20192;-70
2022/10/31 07:12:04;;;;;;;6.50;6.10;;;;;;;10.77;100.00;101655.13;6020770;23;20011;-69
2022/10/31 07:14:31;;;;;;;7.93;6.28;;;;;;;10.21;100.00;101563.59;6025453;23;20031;-71
2022/10/31 07:16:57;;;;;;;8.88;6.20;;;;;;;10.78;100.00;101655.06;6034704;23;20034;-70
2022/10/31 07:19:24;;;;;;;11.73;6.97;;;;;;;10.57;100.00;101616.50;6047647;23;20085;-70
2022/10/31 07:21:50;;;;;;;10.02;5.88;;;;;;;10.52;100.00;101598.31;6072064;23;20018;-69
2022/10/31 07:24:16;;;;;;;5.82;5.43;;;;;;;10.81;100.00;101640.13;6049024;23;20026;-70
2022/10/31 07:26:43;;;;;;;6.85;5.78;;;;;;;10.96;100.00;101652.66;6046111;23;20038;-70
2022/10/31 07:29:09;;;;;;;6.47;6.05;;;;;;;10.97;100.00;101647.34;6056338;23;20014;-69
2022/10/31 07:31:36;;;;;;;9.68;7.15;;;;;;;10.95;100.00;101656.19;6043221;23;20276;-69
2022/10/31 07:34:02;;;;;;;7.30;6.60;;;;;;;11.03;100.00;101654.13;6056737;23;20014;-70
2022/10/31 07:36:29;;;;;;;9.65;6.57;;;;;;;10.81;100.00;101606.00;6051271;23;20034;-72
2022/10/31 07:38:55;;;;;;;12.73;6.75;;;;;;;10.87;100.00;101609.22;6041476;23;20019;-71
2022/10/31 07:41:21;;;;;;;6.85;6.25;;;;;;;11.20;100.00;101655.25;6041564;23;20449;-73
2022/10/31 07:43:48;;;;;;;7.38;6.63;;;;;;;10.77;100.00;101569.34;6048523;23;20042;-71
2022/10/31 07:46:14;;;;;;;7.55;6.75;;;;;;;11.40;100.00;101654.44;6037619;23;20096;-70
2022/10/31 07:48:41;;;;;;;8.32;7.50;;;;;;;11.50;100.00;101656.63;6058930;23;20350;-71
2022/10/31 07:51:07;;;;;;;7.22;6.53;;;;;;;11.60;100.00;101656.25;6056028;23;20018;-73
2022/10/31 07:53:33;;;;;;;8.00;7.20;;;;;;;11.64;100.00;101642.06;6051755;23;20058;-71
2022/10/31 07:56:00;;;;;;;7.38;6.82;;;;;;;11.71;100.00;101640.91;6067164;23;20021;-71
2022/10/31 07:58:26;;;;;;;9.05;7.55;;;;;;;11.64;100.00;101621.03;6025489;23;20026;-72
2022/10/31 08:00:53;;;;;;;9.02;7.72;;;;;;;11.80;100.00;101631.78;6057299;23;20022;-72
2022/10/31 08:03:19;;;;;;;8.57;7.13;;;;;;;11.84;100.00;101633.34;6051340;23;20057;-72
2022/10/31 08:05:46;;;;;;;8.15;7.45;;;;;;;11.80;100.00;101616.84;6038180;23;20072;-73
2022/10/31 08:08:14;;;;;;;9.80;7.55;;;;;;;11.91;100.00;101633.06;6041386;23;20034;-71
2022/10/31 08:10:40;;;;;;;7.60;6.85;;;;;;;12.04;100.00;101630.75;6054211;23;20432;-73
2022/10/31 08:13:12;;;;;;;8.77;7.10;;;;;;;12.10;100.00;101630.47;6049502;23;20022;-72
2022/10/31 08:15:41;;;;;;;7.72;6.80;;;;;;;12.07;100.00;101627.16;6059607;23;20026;-72
2022/10/31 08:18:14;;;;;;;7.75;7.10;;;;;;;12.12;100.00;101617.25;6028777;23;20026;-71
2022/10/31 08:20:42;;;;;;;9.40;7.40;;;;;;;12.15;100.00;101619.75;6047692;23;20457;-71
2022/10/31 08:23:11;;;;;;;7.90;7.13;;;;;;;11.99;100.00;101580.13;6039897;23;20019;-72
2022/10/31 08:25:37;;;;;;;14.70;7.10;;;;;;;12.31;100.00;101610.25;6050981;23;20047;-71
2022/10/31 08:28:06;;;;;;;11.85;6.90;;;;;;;12.49;100.00;101619.09;6042496;23;20047;-73
2022/10/31 08:30:35;;;;;;;8.80;6.95;;;;;;;12.44;100.00;101614.97;6046713;23;20026;-71
2022/10/31 08:33:11;;;;;;;8.32;7.43;;;;;;;12.69;100.00;101620.84;6019148;23;20019;-72
2022/10/31 08:35:37;;;;;;;8.40;7.57;;;;;;;12.66;100.00;101605.16;6058393;23;20025;-71
2022/10/31 08:38:04;;;;;;;8.40;7.50;;;;;;;12.54;100.00;101568.84;6010389;23;20454;-72
2022/10/31 08:40:32;;;;;;;8.80;7.57;;;;;;;12.70;100.00;101598.81;6053141;23;20030;-71
2022/10/31 08:43:00;;;;;;;7.60;6.70;;;;;;;13.05;100.00;101633.19;6056661;23;20022;-72
2022/10/31 08:45:28;;;;;;;7.18;6.60;;;;;;;12.97;100.00;101633.56;6040626;23;20038;-71
2022/10/31 08:48:04;;;;;;;8.73;7.25;;;;;;;12.97;100.00;101625.66;6037028;23;20118;-71
2022/10/31 08:50:33;;;;;;;7.00;6.40;;;;;;;12.94;100.00;101617.03;6041976;23;20362;-70
2022/10/31 08:53:05;;;;;;;7.63;6.93;;;;;;;12.71;100.00;101545.22;6021592;23;20149;-71
2022/10/31 08:55:36;;;;;;;7.97;7.22;;;;;;;13.14;100.00;101598.47;6041631;23;20362;-70
2022/10/31 08:58:05;;;;;;;18.50;7.25;;;;;;;13.40;100.00;101629.81;6057269;23;20015;-71
2022/10/31 09:00:32;;;;;;;7.85;7.15;;;;;;;13.04;100.00;101578.78;6055566;23;20025;-70
2022/10/31 09:03:01;;;;;;;9.13;7.53;;;;;;;13.34;100.00;101628.34;6024332;23;20043;-70
2022/10/31 09:05:28;;;;;;;7.55;6.88;;;;;;;13.21;100.00;101582.38;6043473;23;20049;-69
2022/10/31 09:07:59;;;;;;;6.72;6.13;;;;;;;13.65;100.00;101625.03;6044541;23;20019;-70
2022/10/31 09:10:30;;;;;;;6.87;6.30;;;;;;;13.70;100.00;101632.72;6081164;23;20072;-70
2022/10/31 09:13:11;;;;;;;7.30;6.75;;;;;;;13.61;100.00;101598.88;6045162;23;20449;-70
2022/10/31 09:15:42;;;;;;;7.60;6.93;;;;;;;13.96;100.00;101629.59;6006285;23;20031;-70
2022/10/31 09:18:09;;;;;;;7.85;7.15;;;;;;;13.71;100.00;101571.97;6045873;23;20067;-70
2022/10/31 09:20:37;;;;;;;7.15;6.53;;;;;;;14.19;100.00;101646.00;6054738;23;20026;-70
2022/10/31 09:23:10;;;;;;;6.72;6.22;;;;;;;14.31;100.00;101639.25;6056517;23;20084;-70
2022/10/31 09:25:37;;;;;;;14.23;8.02;;;;;;;13.93;100.00;101565.56;6045613;23;20027;-71
2022/10/31 09:28:05;;;;;;;7.15;6.55;;;;;;;14.33;100.00;101601.28;6039393;23;20079;-71
2022/10/31 09:30:33;;;;;;;7.45;6.68;;;;;;;14.71;100.00;101634.50;6039677;23;20097;-71
2022/10/31 09:33:05;;;;;;;10.43;7.20;;;;;;;14.66;100.00;101623.34;6056499;23;20022;-70
2022/10/31 09:35:32;;;;;;;7.97;7.18;;;;;;;14.86;100.00;101627.53;6051949;23;20096;-70
2022/10/31 09:38:00;;;;;;;7.63;6.85;;;;;;;14.80;100.00;101622.59;6050340;23;20395;-70
2022/10/31 09:40:31;;;;;;;7.43;6.75;;;;;;;14.48;100.00;101567.06;6048087;23;20045;-69
2022/10/31 09:43:02;;;;;;;10.55;6.63;;;;;;;14.58;100.00;101578.84;6057303;23;20080;-70
2022/10/31 09:45:41;;;;;;;6.85;6.28;;;;;;;14.93;100.00;101615.66;6049115;23;20035;-70
2022/10/31 09:48:41;;;;;;;7.15;6.63;;;;;;;15.01;100.00;101616.09;6068555;23;20465;-69
2022/10/31 09:51:25;;;;;;;7.30;6.43;;;;;;;14.90;100.00;101573.56;6055292;23;20018;-71
2022/10/31 09:54:04;;;;;;;8.50;7.10;;;;;;;14.80;100.00;101548.59;6057494;23;20041;-70
2022/10/31 09:56:32;;;;;;;8.23;7.55;;;;;;;15.17;100.00;101608.13;6063427;23;20468;-70
2022/10/31 09:59:01;;;;;;;8.00;7.40;;;;;;;14.91;100.00;101541.75;6059041;23;20010;-70
2022/10/31 10:01:48;;;;;;;13.40;6.47;;;;;;;15.40;100.00;101590.97;6046773;23;20053;-70
2022/10/31 10:04:46;;;;;;;9.45;6.90;;;;;;;15.53;100.00;101593.72;6048582;23;20076;-70
2022/10/31 10:07:22;;;;;;;8.13;6.82;;;;;;;15.56;100.00;101590.91;6034512;23;20034;-70
2022/10/31 10:09:49;;;;;;;7.50;6.88;;;;;;;15.21;100.00;101522.41;6020314;23;20083;-70
2022/10/31 10:13:02;;;;;;;7.28;6.57;;;;;;;15.42;100.00;101541.47;6058751;23;20025;-70
2022/10/31 10:15:50;;;;;;;8.70;7.43;;;;;;;15.77;100.00;101553.56;6062824;23;20026;-70
2022/10/31 10:18:50;;;;;;;11.95;6.57;;;;;;;15.87;100.00;101555.53;6047833;23;20031;-70
2022/10/31 10:21:31;;;;;;;7.38;6.70;;;;;;;15.94;100.00;101556.88;6060107;23;20030;-69
2022/10/31 10:24:21;;;;;;;6.97;6.38;;;;;;;15.49;100.00;101500.47;6060453;23;20076;-70
2022/10/31 10:27:06;;;;;;;7.93;6.63;;;;;;;15.85;100.00;101549.50;6038113;23;20034;-70
2022/10/31 10:29:44;;;;;;;7.22;6.60;;;;;;;15.75;100.00;101519.25;6055705;23;20508;-70
2022/10/31 10:32:21;;;;;;;8.25;7.22;;;;;;;15.91;100.00;101533.22;6065217;23;20014;-70
2022/10/31 10:34:58;;;;;;;8.50;6.93;;;;;;;15.80;100.00;101496.00;6058986;23;20245;-70
2022/10/31 10:37:39;;;;;;;7.03;6.43;;;;;;;15.97;100.00;101508.19;6056508;23;20102;-70
2022/10/31 10:40:15;;;;;;;8.13;7.10;;;;;;;15.99;99.00;101486.91;6042561;23;20090;-70
2022/10/31 10:48:41;;;;;;;6.93;6.38;;;;;;;16.46;98.74;101485.72;6056821;23;20034;-70
2022/10/31 10:51:19;;;;;;;8.13;6.90;;;;;;;16.72;98.56;101511.38;6048340;23;20431;-70
2022/10/31 10:54:20;;;;;;;10.50;7.13;;;;;;;17.07;97.75;101526.78;6047389;23;20058;-70
2022/10/31 10:57:12;;;;;;;7.82;7.03;;;;;;;17.27;94.48;101532.56;6051118;23;20018;-70
2022/10/31 10:59:38;;;;;;;7.07;6.38;;;;;;;17.21;91.05;101511.75;6053117;23;20023;-69
2022/10/31 11:02:17;;;;;;;6.85;6.22;;;;;;;17.38;90.34;101524.75;6061437;23;20601;-70
2022/10/31 11:04:47;;;;;;;11.95;6.85;;;;;;;17.39;89.81;101517.63;6036563;23;20020;-70
2022/10/31 11:07:13;;;;;;;8.07;7.25;;;;;;;17.02;88.57;101437.88;6061861;23;20055;-71
2022/10/31 11:09:40;;;;;;;6.63;6.13;;;;;;;17.35;88.97;101495.75;6057824;23;20279;-70
2022/10/31 11:12:24;;;;;;;12.80;6.82;;;;;;;17.36;88.83;101489.50;6049508;23;20022;-69
2022/10/31 11:14:55;;;;;;;7.50;6.78;;;;;;;17.34;88.28;101486.09;6037269;23;20017;-70
2022/10/31 11:17:30;;;;;;;6.85;6.10;;;;;;;17.38;89.30;101479.63;6049216;23;20418;-70
2022/10/31 11:20:20;;;;;;;6.75;6.20;;;;;;;17.53;89.75;101485.69;6046442;23;20015;-69
2022/10/31 11:22:48;;;;;;;8.07;7.30;;;;;;;17.73;88.97;101484.31;6033803;23;20607;-70
2022/10/31 11:25:24;;;;;;;7.38;6.78;;;;;;;17.89;87.64;101489.41;6036542;23;20084;-71
2022/10/31 11:28:09;;;;;;;9.65;7.22;;;;;;;18.10;86.20;101473.75;6040728;23;20019;-70
2022/10/31 11:30:44;;;;;;;9.02;6.90;;;;;;;18.20;84.64;101458.88;6038168;23;20084;-70
2022/10/31 11:33:18;;;;;;;8.05;6.88;;;;;;;18.39;83.54;101462.84;6065027;23;20090;-69
2022/10/31 11:35:47;;;;;;;6.65;6.15;;;;;;;18.32;82.87;101444.69;6060826;23;20030;-71
2022/10/31 11:38:22;;;;;;;6.90;6.30;;;;;;;18.01;82.14;101379.66;6050775;23;20387;-71
2022/10/31 11:41:03;;;;;;;7.95;7.25;;;;;;;18.47;81.45;101429.41;6060702;23;20108;-71